HBA weather

Hobart International Airport
Hobart, Tasmania, Australia

Public forecast

Using degrees Celsius for public forecast. Weather courtesy of forecast.io.

METAR (pilot weather report)

Retrieved 2017/06/28 17:30 UTC (1 hour ago):

YMHB 281730Z 35008KT 9999 FEW040 06/03 Q1015

TAF (pilot weather forecast)

Retrieved 2017/06/28 18:35 UTC (0 seconds ago):

TAF YMHB 281713Z 2818/2918 33008KT 9999 FEW040 FM290100 30018G28KT 9999 -SHRA SCT030 BKN040 FM290300 24022G35KT 9999 -SHRA SCT030 BKN040 FM290800 26015KT 9999 -SHRA SCT035 INTER 2902/2906 5000 SHRA BKN025